createdAt,value
2018-07-28T00:04:03.556Z,4.70
2018-07-28T00:08:56.757Z,5.40
2018-07-28T00:13:50.824Z,4.40
2018-07-28T00:18:44.193Z,4.90
2018-07-28T00:23:38.711Z,4.80
2018-07-28T00:28:31.673Z,4.50
2018-07-28T00:33:24.824Z,4.10
2018-07-28T00:38:19.737Z,4.70
2018-07-28T00:43:12.730Z,5.00
2018-07-28T00:48:07.037Z,4.50
2018-07-28T00:53:00.292Z,5.10
2018-07-28T00:57:53.711Z,6.00
2018-07-28T01:02:48.168Z,5.50
2018-07-28T01:07:41.420Z,4.60
2018-07-28T01:12:34.716Z,4.90
2018-07-28T01:17:29.097Z,5.30
2018-07-28T01:22:22.488Z,4.90
2018-07-28T01:27:15.577Z,5.80
2018-07-28T01:32:08.818Z,5.80
2018-07-28T01:37:02.148Z,6.80
2018-07-28T01:41:56.307Z,5.90
2018-07-28T01:46:49.560Z,6.40
2018-07-28T01:51:43.780Z,5.40
2018-07-28T01:56:36.947Z,6.10
2018-07-28T02:01:30.328Z,4.80
2018-07-28T02:06:23.636Z,5.80
2018-07-28T02:11:17.604Z,5.80
2018-07-28T02:16:11.004Z,6.30
2018-07-28T02:21:04.424Z,5.30
2018-07-28T02:25:58.788Z,6.90
2018-07-28T02:30:51.817Z,5.90
2018-07-28T02:35:46.175Z,4.70
2018-07-28T02:40:39.414Z,4.90
2018-07-28T02:45:32.657Z,6.90
2018-07-28T02:50:30.088Z,6.40
2018-07-28T02:55:22.176Z,6.00
2018-07-28T03:00:15.455Z,7.80
2018-07-28T03:05:09.756Z,7.60
2018-07-28T03:10:02.704Z,6.30
2018-07-28T03:14:58.992Z,6.20
2018-07-28T03:19:51.856Z,5.90
2018-07-28T03:24:45.070Z,5.70
2018-07-28T03:29:39.153Z,6.00
2018-07-28T03:34:32.068Z,6.70
2018-07-28T03:39:27.801Z,4.80
2018-07-28T03:44:20.423Z,5.90
2018-07-28T03:49:13.827Z,5.10
2018-07-28T03:54:10.996Z,5.50
2018-07-28T03:59:06.478Z,6.00
2018-07-28T04:03:59.888Z,5.10
2018-07-28T04:08:52.865Z,5.60
2018-07-28T04:13:45.905Z,4.30
2018-07-28T04:18:42.144Z,5.40
2018-07-28T04:23:34.748Z,5.00
2018-07-28T04:28:27.939Z,4.80
2018-07-28T04:33:22.715Z,6.20
2018-07-28T04:38:21.728Z,5.60
2018-07-28T04:43:17.340Z,4.10
2018-07-28T04:48:09.888Z,4.60
2018-07-28T04:53:03.145Z,4.00
2018-07-28T04:57:59.363Z,4.80
2018-07-28T05:02:54.940Z,4.80
2018-07-28T05:07:47.404Z,6.00
2018-07-28T05:12:41.576Z,6.70
2018-07-28T05:17:34.829Z,4.30
2018-07-28T05:22:28.295Z,4.60
2018-07-28T05:27:24.823Z,4.60
2018-07-28T05:32:17.440Z,4.70
2018-07-28T05:37:10.786Z,3.20
2018-07-28T05:42:06.397Z,4.30
2018-07-28T05:46:59.436Z,5.00
2018-07-28T05:51:53.580Z,5.20
2018-07-28T05:56:46.612Z,4.50
2018-07-28T06:01:40.776Z,4.70
2018-07-28T06:06:33.685Z,4.50
2018-07-28T06:11:26.752Z,3.50
2018-07-28T06:16:21.035Z,4.50
2018-07-28T06:21:13.986Z,4.60
2018-07-28T06:26:07.213Z,3.70
2018-07-28T06:31:00.544Z,3.80
2018-07-28T06:35:53.776Z,4.20
2018-07-28T06:40:47.216Z,4.70
2018-07-28T06:45:48.068Z,5.30
2018-07-28T06:50:40.015Z,4.10
2018-07-28T06:55:34.947Z,4.20
2018-07-28T07:00:27.828Z,4.80
2018-07-28T07:05:24.154Z,4.20
2018-07-28T07:10:16.660Z,5.00
2018-07-28T07:15:11.437Z,4.80
2018-07-28T07:20:07.472Z,4.20
2018-07-28T07:25:00.232Z,4.20
2018-07-28T07:29:53.499Z,4.50
2018-07-28T07:34:50.178Z,4.00
2018-07-28T07:39:43.318Z,4.30
2018-07-28T07:44:36.707Z,5.90
2018-07-28T07:49:30.200Z,4.80
2018-07-28T07:54:26.924Z,5.50
2018-07-28T07:59:19.029Z,5.70
2018-07-28T08:04:11.915Z,4.70
2018-07-28T08:09:05.102Z,5.00
2018-07-28T08:13:58.572Z,3.70
2018-07-28T08:18:52.800Z,5.00
2018-07-28T08:23:46.074Z,4.50
2018-07-28T08:28:40.598Z,5.00
2018-07-28T08:33:33.655Z,5.20
2018-07-28T08:38:26.844Z,4.90
2018-07-28T08:43:20.069Z,5.60
2018-07-28T08:48:13.388Z,6.00
2018-07-28T08:53:07.176Z,4.60
2018-07-28T08:58:00.360Z,5.30
2018-07-28T09:02:53.712Z,4.40
2018-07-28T09:07:47.176Z,5.10
2018-07-28T09:12:40.564Z,5.20
2018-07-28T09:17:33.875Z,5.50
2018-07-28T09:22:27.300Z,5.80
2018-07-28T09:27:21.281Z,4.90
2018-07-28T09:32:14.543Z,4.60
2018-07-28T09:37:08.080Z,4.90
2018-07-28T09:42:01.811Z,4.80
2018-07-28T09:46:55.104Z,5.20
2018-07-28T09:51:48.607Z,5.50
2018-07-28T09:56:41.903Z,4.30
2018-07-28T10:01:35.416Z,3.70
2018-07-28T10:06:29.897Z,4.30
2018-07-28T10:11:23.001Z,4.20
2018-07-28T10:16:16.646Z,4.90
2018-07-28T10:21:10.251Z,3.10
2018-07-28T10:26:03.681Z,3.50
2018-07-28T10:30:57.024Z,4.00
2018-07-28T10:35:50.659Z,4.90
2018-07-28T10:40:44.087Z,5.20
2018-07-28T10:45:37.869Z,4.70
2018-07-28T10:50:31.712Z,6.10
2018-07-28T10:55:25.576Z,3.90
2018-07-28T11:00:19.825Z,4.30
2018-07-28T11:05:13.999Z,4.10
2018-07-28T11:10:08.203Z,4.70
2018-07-28T11:15:02.107Z,4.10
2018-07-28T11:19:56.052Z,4.40
2018-07-28T11:24:51.077Z,4.80
2018-07-28T11:29:44.568Z,4.40
2018-07-28T11:34:40.321Z,4.70
2018-07-28T11:39:33.496Z,4.60
2018-07-28T11:44:27.382Z,5.40
2018-07-28T11:49:20.978Z,4.70
2018-07-28T11:54:14.060Z,5.00
2018-07-28T11:59:07.133Z,5.10
2018-07-28T12:04:00.606Z,4.70
2018-07-28T12:08:54.396Z,4.80
2018-07-28T12:13:48.681Z,4.60
2018-07-28T12:18:42.833Z,4.70
2018-07-28T12:23:37.268Z,7.60
2018-07-28T12:28:31.806Z,4.90
2018-07-28T12:33:24.855Z,4.80
2018-07-28T12:38:19.115Z,6.80
2018-07-28T12:43:12.231Z,5.20
2018-07-28T12:48:06.198Z,5.90
2018-07-28T12:53:00.209Z,6.00
2018-07-28T12:57:57.387Z,5.60
2018-07-28T13:02:50.757Z,4.70
2018-07-28T13:07:44.613Z,5.10
2018-07-28T13:12:38.397Z,4.10
2018-07-28T13:17:34.280Z,4.70
2018-07-28T13:22:27.789Z,5.20
2018-07-28T13:27:21.821Z,5.20
2018-07-28T13:32:16.266Z,4.60
2018-07-28T13:37:11.763Z,5.30
2018-07-28T13:42:06.900Z,5.40
2018-07-28T13:47:00.244Z,4.60
2018-07-28T13:51:54.464Z,5.00
2018-07-28T13:56:48.374Z,4.30
2018-07-28T14:01:42.687Z,4.50
2018-07-28T14:06:36.331Z,4.40
2018-07-28T14:11:29.623Z,4.30
2018-07-28T14:16:25.825Z,4.10
2018-07-28T14:21:18.856Z,4.10
2018-07-28T14:26:12.957Z,4.10
2018-07-28T14:31:07.273Z,4.70
2018-07-28T14:36:02.528Z,3.80
2018-07-28T14:40:58.658Z,3.90
2018-07-28T14:45:52.082Z,2.90
2018-07-28T14:51:50.207Z,4.40
2018-07-28T14:56:44.520Z,3.80
2018-07-28T15:01:37.991Z,3.40
2018-07-28T15:06:33.444Z,4.90
2018-07-28T15:11:26.730Z,3.50
2018-07-28T15:16:20.853Z,3.40
2018-07-28T15:21:14.411Z,3.60
2018-07-28T15:26:07.770Z,2.80
2018-07-28T15:31:01.138Z,2.90
2018-07-28T15:35:54.620Z,2.50
2018-07-28T15:40:48.099Z,2.80
2018-07-28T15:45:41.860Z,2.40
2018-07-28T15:50:37.449Z,2.40
2018-07-28T15:55:30.711Z,2.90
2018-07-28T16:00:24.498Z,2.60
2018-07-28T16:05:18.415Z,2.00
2018-07-28T16:10:12.137Z,1.80
2018-07-28T16:15:05.845Z,3.00
2018-07-28T16:20:00.712Z,3.20
2018-07-28T16:24:56.417Z,3.00
2018-07-28T16:29:49.804Z,3.20
2018-07-28T16:34:43.758Z,2.50
2018-07-28T16:39:37.395Z,2.80
2018-07-28T16:44:31.035Z,2.20
2018-07-28T16:49:24.596Z,2.90
2018-07-28T16:54:18.214Z,2.60
2018-07-28T16:59:11.711Z,2.20
2018-07-28T17:04:05.607Z,2.90
2018-07-28T17:08:58.896Z,2.70
2018-07-28T17:13:56.234Z,2.30
2018-07-28T17:18:57.522Z,2.20
2018-07-28T17:23:50.797Z,1.80
2018-07-28T17:28:44.379Z,2.50
2018-07-28T17:33:39.728Z,2.80
2018-07-28T17:38:32.943Z,2.10
2018-07-28T17:43:26.381Z,2.00
2018-07-28T17:48:20.046Z,2.40
2018-07-28T17:53:14.579Z,2.20
2018-07-28T17:58:10.088Z,1.90
2018-07-28T18:03:03.877Z,2.90
2018-07-28T18:07:58.296Z,2.30
2018-07-28T18:12:53.611Z,2.30
2018-07-28T18:17:48.343Z,2.30
2018-07-28T18:22:41.760Z,2.90
2018-07-28T18:27:35.171Z,2.20
2018-07-28T18:32:29.800Z,2.70
2018-07-28T18:37:23.238Z,2.00
2018-07-28T18:42:16.575Z,2.00
2018-07-28T18:47:12.324Z,2.50
2018-07-28T18:52:11.183Z,2.50
2018-07-28T18:57:05.608Z,2.50
2018-07-28T19:01:59.579Z,3.20
2018-07-28T19:06:52.841Z,3.00
2018-07-28T19:11:46.392Z,3.10
2018-07-28T19:16:39.901Z,2.40
2018-07-28T19:21:33.571Z,2.20
2018-07-28T19:26:27.030Z,2.90
2018-07-28T19:31:21.048Z,3.30
2018-07-28T19:36:14.196Z,3.30
2018-07-28T19:41:07.290Z,2.10
2018-07-28T19:46:00.778Z,3.10
2018-07-28T19:50:54.392Z,1.90
2018-07-28T19:55:47.950Z,2.40
2018-07-28T20:00:41.386Z,2.00
2018-07-28T20:05:34.682Z,2.70
2018-07-28T20:10:28.027Z,2.40
